Time;durP1;ratioP1;P1;durP2;ratioP2;P2;SDS_P1;SDS_P2;PMS_P1;PMS_P2;Temp;Humidity;BMP_temperature;BMP_pressure;BME280_temperature;BME280_humidity;BME280_pressure;Samples;Min_cycle;Max_cycle;Signal;HPM_P1;HPM_P2
2022/01/16 00:00:42;;;;;;;;;57.25;48.25;;;;;2.93;64.00;101828.91;5038332;28;45345;-59
2022/01/16 00:05:54;;;;;;;;;54.00;45.75;;;;;2.92;64.28;101824.56;5054762;28;45569;-59
2022/01/16 00:08:19;;;;;;;;;55.50;44.00;;;;;2.89;64.11;101812.41;5055038;28;45583;-58
2022/01/16 00:10:45;;;;;;;;;56.00;46.25;;;;;2.93;63.88;101802.94;5056146;28;45488;-57
2022/01/16 00:13:10;;;;;;;;;59.50;46.75;;;;;2.84;64.45;101809.72;5054011;28;45535;-57
2022/01/16 00:15:36;;;;;;;;;58.00;46.50;;;;;2.80;64.25;101809.69;5056192;28;45498;-58
2022/01/16 00:20:31;;;;;;;;;58.50;48.50;;;;;2.80;64.91;101812.28;5055539;28;45424;-58
2022/01/16 00:22:57;;;;;;;;;48.75;44.25;;;;;2.80;64.39;101817.47;5056150;28;45452;-57
2022/01/16 00:25:23;;;;;;;;;57.00;44.50;;;;;2.76;64.29;101813.94;5055087;28;45479;-57
2022/01/16 00:27:49;;;;;;;;;60.00;48.00;;;;;2.75;64.09;101824.31;5055924;28;45410;-58
2022/01/16 00:30:15;;;;;;;;;60.25;48.75;;;;;2.75;64.29;101850.28;5055354;28;45427;-58
2022/01/16 00:32:41;;;;;;;;;57.00;48.25;;;;;2.75;64.06;101855.50;5053572;28;45520;-58
2022/01/16 00:35:07;;;;;;;;;53.75;47.25;;;;;2.75;63.92;101866.75;5055927;28;45395;-60
2022/01/16 00:37:33;;;;;;;;;62.00;49.00;;;;;2.75;64.24;101868.47;5055676;28;45407;-57
2022/01/16 00:39:58;;;;;;;;;54.50;47.00;;;;;2.65;64.69;101849.25;5056099;28;45401;-59
2022/01/16 00:42:23;;;;;;;;;50.25;45.50;;;;;2.56;65.12;101817.94;5055162;28;45414;-59
2022/01/16 00:44:49;;;;;;;;;54.25;47.50;;;;;2.64;64.75;101824.13;5055864;28;45336;-57
2022/01/16 00:47:14;;;;;;;;;55.25;47.00;;;;;2.65;64.29;101828.47;5055079;28;45376;-57
2022/01/16 00:49:41;;;;;;;;;57.00;48.00;;;;;2.62;64.43;101825.81;5055399;28;45608;-58
2022/01/16 00:52:08;;;;;;;;;54.75;46.00;;;;;2.62;64.61;101839.69;5055131;28;46193;-56
2022/01/16 00:54:33;;;;;;;;;55.00;45.25;;;;;2.65;63.53;101844.06;5055343;28;46422;-57
2022/01/16 00:56:59;;;;;;;;;51.75;47.25;;;;;2.53;64.62;101860.31;5055360;28;45450;-57
2022/01/16 00:59:24;;;;;;;;;47.00;41.25;;;;;2.52;64.15;101848.16;5055580;28;45462;-57
2022/01/16 01:01:50;;;;;;;;;51.75;45.50;;;;;2.45;64.50;101892.19;5055518;28;45809;-60
2022/01/16 01:04:16;;;;;;;;;61.75;46.00;;;;;2.39;63.98;101899.00;5055019;28;45497;-59
2022/01/16 01:06:41;;;;;;;;;52.00;43.50;;;;;2.40;64.29;101898.16;5055550;28;45431;-57
2022/01/16 01:09:06;;;;;;;;;49.00;42.50;;;;;2.28;64.68;101886.66;5055315;28;45349;-58
2022/01/16 01:11:32;;;;;;;;;59.75;43.75;;;;;2.30;63.94;101892.75;5036162;28;45467;-58
2022/01/16 01:16:38;;;;;;;;;65.25;48.50;;;;;2.32;64.58;101894.53;5055228;28;45515;-57
2022/01/16 01:19:03;;;;;;;;;39.50;37.50;;;;;2.31;64.31;101900.56;5037332;28;45453;-58
2022/01/16 01:21:28;;;;;;;;;53.50;46.00;;;;;2.41;64.32;101860.94;5055100;28;45502;-58
2022/01/16 01:23:59;;;;;;;;;53.50;42.00;;;;;2.50;63.87;101823.91;5056079;28;45474;-57
2022/01/16 01:26:30;;;;;;;;;46.00;43.25;;;;;2.41;64.04;101802.94;5058467;28;45392;-58
2022/01/16 01:28:55;;;;;;;;;55.25;44.75;;;;;2.47;63.58;101802.19;5056562;28;45527;-56
2022/01/16 01:31:21;;;;;;;;;49.00;44.25;;;;;2.57;64.01;101786.78;5058656;28;45848;-60
2022/01/16 01:33:46;;;;;;;;;47.25;43.00;;;;;2.64;63.57;101788.66;5058273;28;45404;-56
2022/01/16 01:36:12;;;;;;;;;58.25;46.75;;;;;2.60;64.00;101815.41;5057701;28;45475;-58
2022/01/16 01:38:37;;;;;;;;;59.00;49.00;;;;;2.55;63.99;101831.75;5040722;28;45552;-59
2022/01/16 01:41:02;;;;;;;;;50.25;43.50;;;;;2.54;63.60;101851.66;5058589;28;45791;-53
2022/01/16 01:51:33;;;;;;;;;62.25;49.00;;;;;2.51;64.59;101889.69;5058166;28;45477;-59
2022/01/16 01:54:00;;;;;;;;;55.75;46.25;;;;;2.59;64.05;101895.91;5057869;28;45422;-58
2022/01/16 01:56:26;;;;;;;;;60.50;47.75;;;;;2.56;63.88;101901.91;5058472;28;45380;-58
2022/01/16 01:58:57;;;;;;;;;57.00;46.75;;;;;2.59;63.96;101898.50;5057903;28;45438;-58
2022/01/16 02:01:22;;;;;;;;;58.00;48.25;;;;;2.65;63.86;101898.59;5058411;28;45475;-59
2022/01/16 02:03:49;;;;;;;;;57.00;46.00;;;;;2.70;64.19;101916.88;5058343;28;45384;-57
2022/01/16 02:06:26;;;;;;;;;57.00;47.00;;;;;2.81;63.98;101924.00;5058238;28;45559;-57
2022/01/16 02:08:54;;;;;;;;;63.50;44.50;;;;;2.80;63.36;101952.56;5058222;28;45361;-58
2022/01/16 02:11:24;;;;;;;;;55.75;47.50;;;;;2.72;64.24;101943.75;5057989;28;45473;-56
2022/01/16 02:13:59;;;;;;;;;57.50;45.75;;;;;2.78;64.75;101944.72;5056858;28;45513;-57
2022/01/16 02:35:26;;;;;;;;;67.00;53.50;;;;;2.88;63.41;101941.47;5056892;28;45519;-59
2022/01/16 02:37:52;;;;;;;;;58.75;49.75;;;;;2.91;63.53;101935.44;5057787;28;45389;-59
2022/01/16 02:40:22;;;;;;;;;60.00;48.50;;;;;2.85;64.57;101920.63;5057809;28;45451;-59
2022/01/16 02:42:50;;;;;;;;;61.00;49.50;;;;;2.92;64.22;101907.72;5057158;28;46033;-58
2022/01/16 02:45:28;;;;;;;;;65.25;47.50;;;;;3.01;63.98;101908.78;5057542;28;45427;-59
2022/01/16 02:47:59;;;;;;;;;65.00;52.00;;;;;3.06;63.85;101899.34;5057836;28;45415;-58
2022/01/16 02:50:25;;;;;;;;;66.25;48.50;;;;;3.08;63.67;101901.94;5038913;28;45539;-60
2022/01/16 02:52:51;;;;;;;;;66.00;50.00;;;;;3.11;63.53;101899.38;5057319;28;45459;-58
2022/01/16 02:55:20;;;;;;;;;65.25;51.00;;;;;3.12;63.79;101908.94;5057078;28;45562;-60
2022/01/16 02:57:46;;;;;;;;;65.00;52.00;;;;;3.11;63.57;101899.38;5057593;28;45609;-58
2022/01/16 03:00:12;;;;;;;;;70.50;55.25;;;;;3.13;63.65;101902.03;5056618;28;45642;-58
2022/01/16 03:02:37;;;;;;;;;68.00;52.75;;;;;3.14;63.99;101896.81;5057599;28;45493;-58
2022/01/16 03:05:04;;;;;;;;;63.00;50.00;;;;;3.17;63.63;101893.41;5056933;28;45554;-57
2022/01/16 03:07:29;;;;;;;;;64.50;52.75;;;;;3.21;63.46;101896.09;5039122;28;45457;-59
2022/01/16 03:10:48;;;;;;;;;62.75;49.25;;;;;3.25;64.05;101884.00;5038872;28;45488;-59
2022/01/16 03:13:07;;;;;;;;;62.00;50.75;;;;;3.24;63.67;101880.53;5056094;28;46021;-58
2022/01/16 03:15:33;;;;;;;;;62.75;52.50;;;;;3.24;63.88;101884.88;5038699;28;45348;-59
2022/01/16 03:23:08;;;;;;;;;69.25;52.00;;;;;3.12;64.56;101882.06;5057330;28;45808;-58
2022/01/16 03:25:34;;;;;;;;;71.25;55.75;;;;;3.12;64.30;101872.56;5056796;28;45439;-59
2022/01/16 03:27:59;;;;;;;;;59.75;49.25;;;;;3.12;64.13;101866.47;5056769;28;45453;-59
2022/01/16 03:30:25;;;;;;;;;61.25;50.50;;;;;3.13;64.24;101882.09;5056736;28;45372;-57
2022/01/16 03:32:50;;;;;;;;;62.75;50.75;;;;;3.04;63.86;101885.44;5056647;28;45952;-59
2022/01/16 03:35:15;;;;;;;;;67.75;55.00;;;;;2.92;63.59;101874.81;5056904;28;45507;-60
2022/01/16 03:37:41;;;;;;;;;74.50;54.00;;;;;2.90;64.45;101888.63;5056681;28;45632;-59
2022/01/16 03:40:10;;;;;;;;;61.00;48.75;;;;;2.91;64.84;101898.19;5056445;28;45692;-58
2022/01/16 03:42:37;;;;;;;;;62.75;49.50;;;;;2.88;63.88;101899.88;5055256;28;46187;-58
2022/01/16 03:45:03;;;;;;;;;62.75;51.50;;;;;2.73;64.64;101904.81;5056824;28;45395;-59
2022/01/16 03:47:29;;;;;;;;;70.75;52.50;;;;;2.74;65.23;101903.06;5056747;28;45478;-57
2022/01/16 03:49:54;;;;;;;;;64.50;48.50;;;;;2.73;65.80;101889.22;5056133;28;45473;-57
2022/01/16 03:52:19;;;;;;;;;60.50;49.25;;;;;2.77;65.80;101887.56;5056279;28;46085;-57
2022/01/16 03:54:45;;;;;;;;;67.00;53.00;;;;;2.85;65.56;101893.78;5055994;28;45422;-58
2022/01/16 03:57:10;;;;;;;;;60.75;48.50;;;;;2.89;65.57;101887.75;5056228;28;45372;-57
2022/01/16 03:59:35;;;;;;;;;62.25;49.50;;;;;2.96;64.90;101901.75;5055903;28;45619;-58
2022/01/16 04:02:01;;;;;;;;;66.00;50.75;;;;;3.02;65.59;101899.25;5056400;28;45391;-58
2022/01/16 04:04:26;;;;;;;;;64.50;51.75;;;;;3.00;64.75;101900.94;5056270;28;45480;-57
2022/01/16 04:06:52;;;;;;;;;63.00;48.25;;;;;3.00;65.50;101909.59;5056423;28;45527;-56
2022/01/16 04:09:17;;;;;;;;;35.00;29.75;;;;;2.88;64.90;101909.41;5055890;28;45412;-59
2022/01/16 04:11:52;;;;;;;;;62.00;50.75;;;;;2.83;65.54;101903.25;5055531;28;45474;-61
2022/01/16 04:17:03;;;;;;;;;62.00;48.00;;;;;2.71;65.95;101903.03;5056232;28;45455;-55
2022/01/16 04:19:28;;;;;;;;;58.75;49.50;;;;;2.78;65.49;101918.75;5056001;28;45630;-58
2022/01/16 04:21:53;;;;;;;;;64.75;50.50;;;;;2.83;65.49;101927.50;5055511;28;45403;-58
2022/01/16 04:24:18;;;;;;;;;62.00;50.25;;;;;2.87;65.25;101931.94;5056076;28;45467;-58
2022/01/16 04:26:44;;;;;;;;;56.00;48.00;;;;;2.93;65.77;101931.16;5056327;28;45501;-56
2022/01/16 04:29:09;;;;;;;;;64.75;49.75;;;;;2.87;65.89;101938.81;5054978;28;45682;-58
2022/01/16 04:31:34;;;;;;;;;66.50;51.75;;;;;2.91;65.72;101934.56;5055631;28;46078;-57
2022/01/16 04:34:00;;;;;;;;;61.50;50.00;;;;;2.88;65.52;101946.66;5055523;28;45389;-56
2022/01/16 04:36:25;;;;;;;;;61.75;50.50;;;;;2.88;65.08;101958.78;5055996;28;45452;-58
2022/01/16 04:38:52;;;;;;;;;59.75;51.50;;;;;2.86;65.09;101968.25;5055712;28;45403;-57
2022/01/16 04:44:03;;;;;;;;;65.25;50.00;;;;;2.90;65.66;101970.03;5054871;28;45446;-59
2022/01/16 04:46:30;;;;;;;;;64.75;51.00;;;;;2.82;65.47;101958.63;5055689;28;45483;-58
2022/01/16 04:48:57;;;;;;;;;63.50;53.00;;;;;2.81;65.67;101943.91;5055750;28;45394;-57
2022/01/16 04:51:26;;;;;;;;;60.25;49.25;;;;;2.81;66.36;101967.28;5055598;28;46079;-55
2022/01/16 04:53:51;;;;;;;;;64.25;49.00;;;;;2.81;65.75;101959.50;5055400;28;45515;-58
2022/01/16 04:56:17;;;;;;;;;56.75;49.50;;;;;2.78;66.13;101943.88;5055163;28;45564;-58
2022/01/16 04:58:43;;;;;;;;;67.75;50.50;;;;;2.77;66.57;101948.19;5054987;28;45582;-56
2022/01/16 05:01:09;;;;;;;;;65.50;52.25;;;;;2.73;66.32;101961.94;5055476;28;45527;-57
2022/01/16 05:03:35;;;;;;;;;68.50;53.00;;;;;2.64;67.42;101959.19;5055376;28;45475;-57
2022/01/16 05:06:01;;;;;;;;;64.75;50.75;;;;;2.70;66.83;101966.22;5055351;28;45496;-58
2022/01/16 05:08:28;;;;;;;;;66.25;52.50;;;;;2.74;66.38;101963.72;5036878;28;45544;-56
2022/01/16 05:10:55;;;;;;;;;69.00;50.75;;;;;2.77;66.94;101966.38;5055321;28;47230;-58
2022/01/16 05:18:47;;;;;;;;;61.75;45.25;;;;;2.83;66.88;101979.47;5055379;28;45505;-56
2022/01/16 05:21:12;;;;;;;;;50.00;43.50;;;;;2.78;67.28;101977.63;5036101;28;46901;-58
2022/01/16 05:23:40;;;;;;;;;64.25;49.50;;;;;2.71;67.26;101986.16;5055279;28;45478;-56
2022/01/16 05:26:06;;;;;;;;;56.50;47.50;;;;;2.61;67.78;101985.13;5054769;28;45420;-56
2022/01/16 05:28:31;;;;;;;;;62.75;46.75;;;;;2.69;67.58;101996.53;5055151;28;45352;-58
2022/01/16 05:30:57;;;;;;;;;52.50;45.75;;;;;2.67;68.26;101986.94;5055410;28;46107;-58
2022/01/16 05:33:23;;;;;;;;;63.50;49.50;;;;;2.69;67.54;101993.03;5055044;28;45542;-58
2022/01/16 05:35:48;;;;;;;;;64.50;47.75;;;;;2.67;68.06;102000.81;5055334;28;45483;-56
2022/01/16 05:38:13;;;;;;;;;61.50;49.25;;;;;2.75;67.59;102004.44;5054667;28;45357;-59
2022/01/16 05:40:40;;;;;;;;;60.75;47.00;;;;;2.80;67.80;102013.19;5055087;28;45490;-58
2022/01/16 05:43:06;;;;;;;;;53.75;46.25;;;;;2.81;68.03;102024.44;5055308;28;45441;-59
2022/01/16 05:45:32;;;;;;;;;57.50;49.00;;;;;2.79;67.78;102011.41;5054978;28;45501;-55
2022/01/16 05:47:58;;;;;;;;;54.00;45.75;;;;;2.81;68.15;102007.13;5055327;28;45481;-58
2022/01/16 05:50:24;;;;;;;;;53.50;42.75;;;;;2.82;67.71;101998.50;5054502;28;46136;-58
2022/01/16 05:52:50;;;;;;;;;50.00;43.00;;;;;2.80;67.88;101994.13;5055064;28;45506;-59
2022/01/16 05:55:15;;;;;;;;;57.00;48.25;;;;;2.76;67.82;101987.97;5054462;28;45479;-58
2022/01/16 05:57:41;;;;;;;;;61.75;49.75;;;;;2.78;68.29;102009.69;5036650;28;45583;-58
2022/01/16 06:00:08;;;;;;;;;56.25;48.75;;;;;2.82;68.49;102013.19;5053412;28;45487;-58
2022/01/16 06:02:35;;;;;;;;;45.25;34.75;;;;;2.84;67.94;102011.50;5056415;28;45449;-59
2022/01/16 06:05:01;;;;;;;;;52.75;44.50;;;;;2.94;67.92;102012.56;5075433;28;45395;-58
2022/01/16 06:07:26;;;;;;;;;47.00;43.50;;;;;2.86;68.52;102008.09;5056989;28;45550;-59
2022/01/16 06:09:52;;;;;;;;;42.25;38.50;;;;;2.82;68.26;102006.31;5065174;28;45390;-58
2022/01/16 06:12:18;;;;;;;;;47.25;40.25;;;;;2.81;68.41;102012.31;5057799;28;45427;-57
2022/01/16 06:14:44;;;;;;;;;50.50;41.50;;;;;2.85;67.91;102016.75;5058198;28;45436;-58
2022/01/16 06:17:09;;;;;;;;;49.00;40.00;;;;;2.76;68.52;102039.94;5058348;28;45582;-57
2022/01/16 06:19:34;;;;;;;;;45.75;40.75;;;;;2.74;68.80;102040.75;5056903;28;46031;-55
2022/01/16 06:22:00;;;;;;;;;43.50;36.00;;;;;2.73;69.38;102037.28;5057927;28;45445;-57
2022/01/16 06:24:25;;;;;;;;;44.00;37.25;;;;;2.66;69.48;102035.44;5057602;28;45479;-58
2022/01/16 06:26:50;;;;;;;;;39.50;33.75;;;;;2.60;70.01;102038.75;5066566;28;45447;-57
2022/01/16 06:29:16;;;;;;;;;40.50;35.50;;;;;2.67;69.36;102047.56;5078147;28;45473;-57
2022/01/16 06:31:42;;;;;;;;;41.75;34.25;;;;;2.73;68.88;102055.47;5078250;28;45438;-58
2022/01/16 06:34:08;;;;;;;;;39.25;31.00;;;;;2.71;69.07;102046.75;5077602;28;45756;-58
2022/01/16 06:36:35;;;;;;;;;33.00;32.50;;;;;2.65;69.33;102051.84;5078137;28;45441;-58
2022/01/16 06:39:04;;;;;;;;;42.50;32.75;;;;;2.72;69.35;102048.53;5077979;28;45427;-59
2022/01/16 06:41:30;;;;;;;;;38.00;30.00;;;;;2.61;69.50;102055.22;5056882;28;45617;-60
2022/01/16 06:43:56;;;;;;;;;24.75;22.25;;;;;2.65;69.66;102044.03;5058523;28;45520;-64
2022/01/16 06:46:22;;;;;;;;;35.00;30.00;;;;;2.72;69.52;102048.53;5056411;28;45370;-58
2022/01/16 06:48:48;;;;;;;;;35.25;30.50;;;;;2.83;69.80;102044.41;5069166;28;46258;-59
2022/01/16 06:51:15;;;;;;;;;34.50;29.50;;;;;2.77;69.64;102049.50;5078174;28;45437;-61
2022/01/16 06:53:40;;;;;;;;;36.75;33.25;;;;;2.75;70.00;102051.19;5077406;28;45459;-61
2022/01/16 06:56:05;;;;;;;;;33.25;29.50;;;;;2.79;69.88;102054.72;5077879;28;45604;-62
2022/01/16 06:58:31;;;;;;;;;26.75;22.25;;;;;2.78;70.31;102056.44;5077823;28;45464;-61
2022/01/16 07:00:56;;;;;;;;;35.50;30.00;;;;;2.74;70.29;102052.03;5065614;28;45506;-61
2022/01/16 07:03:21;;;;;;;;;29.50;25.50;;;;;2.70;70.39;102071.00;5057556;28;45456;-61
2022/01/16 07:05:47;;;;;;;;;35.75;29.25;;;;;2.63;70.33;102072.59;5057667;28;45495;-61
2022/01/16 07:08:12;;;;;;;;;40.25;26.50;;;;;2.62;70.48;102082.94;5056572;28;45470;-61
2022/01/16 07:10:38;;;;;;;;;37.00;28.50;;;;;2.69;70.34;102095.22;5057558;28;45435;-61
2022/01/16 07:13:03;;;;;;;;;30.25;23.25;;;;;2.67;70.58;102103.84;5057132;28;45466;-60
2022/01/16 07:15:29;;;;;;;;;28.50;28.50;;;;;2.70;70.17;102104.75;5057472;28;45451;-60
2022/01/16 07:17:55;;;;;;;;;30.00;27.25;;;;;2.75;70.49;102113.53;5056911;28;45402;-60
2022/01/16 07:20:20;;;;;;;;;34.25;29.25;;;;;2.67;70.63;102107.31;5057397;28;45514;-60
2022/01/16 07:22:46;;;;;;;;;29.00;23.50;;;;;2.72;70.37;102095.28;5056474;28;45430;-61
2022/01/16 07:25:13;;;;;;;;;35.25;28.25;;;;;2.83;70.42;102098.09;5057198;28;45651;-61
2022/01/16 07:27:39;;;;;;;;;33.50;29.50;;;;;2.93;70.47;102105.25;5057432;28;45522;-61
2022/01/16 07:30:05;;;;;;;;;34.25;25.25;;;;;2.97;69.98;102103.59;5056802;28;45471;-61
2022/01/16 07:32:31;;;;;;;;;25.75;19.50;;;;;3.00;69.43;102075.06;5057442;28;45423;-60
2022/01/16 07:34:56;;;;;;;;;27.50;21.75;;;;;3.02;70.24;102070.78;5057353;28;45629;-60
2022/01/16 07:37:22;;;;;;;;;39.50;29.75;;;;;2.86;70.25;102083.44;5056925;28;45917;-60
2022/01/16 07:39:47;;;;;;;;;35.75;32.25;;;;;2.83;71.00;102098.09;5056821;28;45423;-61
2022/01/16 07:42:13;;;;;;;;;29.25;23.75;;;;;2.88;71.30;102106.88;5057260;28;45423;-60
2022/01/16 07:44:38;;;;;;;;;30.25;26.00;;;;;2.92;71.49;102113.00;5057106;28;45606;-61
2022/01/16 07:47:04;;;;;;;;;34.75;33.75;;;;;2.99;70.43;102112.28;5056688;28;45615;-60
2022/01/16 07:49:29;;;;;;;;;33.00;28.50;;;;;3.03;70.73;102116.69;5057059;28;45449;-61
2022/01/16 07:51:55;;;;;;;;;35.50;33.50;;;;;3.12;70.71;102119.50;5056382;28;45355;-60
2022/01/16 07:54:20;;;;;;;;;40.25;29.00;;;;;3.10;70.79;102121.19;5057157;28;45609;-61
2022/01/16 07:56:46;;;;;;;;;32.00;31.75;;;;;3.06;70.30;102114.16;5056870;28;45385;-61
2022/01/16 07:59:11;;;;;;;;;35.75;27.00;;;;;3.03;70.43;102108.91;5056789;28;45502;-60
2022/01/16 08:01:37;;;;;;;;;31.00;27.50;;;;;3.00;71.07;102098.44;5056319;28;45488;-60
2022/01/16 08:04:02;;;;;;;;;34.25;29.00;;;;;2.95;70.80;102097.47;5057015;28;45536;-61
2022/01/16 08:06:27;;;;;;;;;36.50;31.25;;;;;2.95;71.14;102093.16;5056807;28;45400;-61
2022/01/16 08:08:53;;;;;;;;;28.25;25.00;;;;;2.97;71.16;102100.97;5056899;28;45385;-60
2022/01/16 08:11:18;;;;;;;;;31.50;28.00;;;;;2.95;71.09;102094.88;5056579;28;45369;-60
2022/01/16 08:13:44;;;;;;;;;36.50;33.75;;;;;3.00;71.48;102103.63;5056261;28;45499;-61
2022/01/16 08:16:09;;;;;;;;;35.00;29.50;;;;;3.02;71.02;102113.22;5038342;28;47105;-61
2022/01/16 08:18:35;;;;;;;;;42.00;33.50;;;;;3.04;71.11;102113.28;5056364;28;45487;-62
2022/01/16 08:21:01;;;;;;;;;37.00;31.75;;;;;3.07;71.40;102114.19;5056554;28;45446;-61
2022/01/16 08:23:27;;;;;;;;;36.50;30.75;;;;;3.05;71.27;102125.41;5055945;28;45540;-59
2022/01/16 08:25:52;;;;;;;;;37.50;34.75;;;;;3.02;71.58;102126.22;5056318;28;46065;-61
2022/01/16 08:28:18;;;;;;;;;39.50;32.50;;;;;3.07;70.76;102127.19;5056315;28;45424;-61
2022/01/16 08:30:43;;;;;;;;;26.25;25.00;;;;;3.09;71.02;102124.63;5056398;28;45403;-61
2022/01/16 08:33:09;;;;;;;;;35.75;27.75;;;;;3.10;71.59;102119.44;5055574;28;45416;-61
2022/01/16 08:35:34;;;;;;;;;40.75;35.75;;;;;3.10;71.42;102119.44;5036843;28;46859;-60
2022/01/16 08:38:00;;;;;;;;;40.50;36.50;;;;;3.19;71.31;102129.16;5055956;28;45477;-59
2022/01/16 08:40:25;;;;;;;;;44.75;34.75;;;;;3.28;71.72;102118.06;5038004;28;45493;-60
2022/01/16 08:42:51;;;;;;;;;39.00;36.00;;;;;3.29;70.14;102109.41;5056103;28;45361;-60
2022/01/16 08:45:17;;;;;;;;;36.25;32.25;;;;;3.30;71.35;102117.25;5054894;28;45973;-60
2022/01/16 08:47:43;;;;;;;;;40.75;38.00;;;;;3.30;71.30;102112.06;5055658;28;45460;-60
2022/01/16 08:50:09;;;;;;;;;42.25;35.25;;;;;3.35;70.37;102126.84;5056228;28;45348;-60
2022/01/16 08:52:35;;;;;;;;;41.00;33.50;;;;;3.37;71.63;102126.03;5054945;28;45577;-59
2022/01/16 08:55:02;;;;;;;;;32.00;29.25;;;;;3.41;69.94;102129.56;5055858;28;45483;-60
2022/01/16 08:57:27;;;;;;;;;39.50;32.75;;;;;3.36;71.26;102126.00;5055090;28;45442;-60
2022/01/16 08:59:53;;;;;;;;;38.25;34.25;;;;;3.29;71.32;102130.22;5055893;28;45573;-61
2022/01/16 09:02:18;;;;;;;;;37.25;34.25;;;;;3.24;71.07;102139.66;5055639;28;45467;-61
2022/01/16 09:04:44;;;;;;;;;36.00;33.75;;;;;3.20;71.75;102137.84;5055416;28;45723;-60
2022/01/16 09:07:09;;;;;;;;;37.00;34.25;;;;;3.25;72.07;102134.50;5055021;28;45388;-60
2022/01/16 09:09:34;;;;;;;;;37.75;34.75;;;;;3.26;70.74;102154.44;5055769;28;45936;-60
2022/01/16 09:12:00;;;;;;;;;37.50;33.25;;;;;3.14;71.11;102142.91;5055403;28;45416;-60
2022/01/16 09:14:25;;;;;;;;;37.50;32.75;;;;;3.22;71.36;102162.13;5055258;28;45313;-61
2022/01/16 09:16:51;;;;;;;;;26.25;24.25;;;;;3.26;70.89;102166.56;5055287;28;45428;-60
2022/01/16 09:19:16;;;;;;;;;38.25;32.00;;;;;3.31;70.67;102172.72;5054901;28;45480;-61
2022/01/16 09:21:41;;;;;;;;;36.00;33.00;;;;;3.31;70.71;102173.59;5037401;28;45538;-61
2022/01/16 09:24:07;;;;;;;;;29.00;27.25;;;;;3.34;70.63;102177.13;5055270;28;45444;-61
2022/01/16 09:26:32;;;;;;;;;27.50;24.00;;;;;3.36;70.43;102175.41;5055325;28;45380;-60
2022/01/16 09:28:58;;;;;;;;;39.50;29.50;;;;;3.38;71.13;102169.38;5054986;28;45393;-60
2022/01/16 09:31:23;;;;;;;;;34.75;31.25;;;;;3.37;70.24;102177.16;5055067;28;45402;-61
2022/01/16 09:33:48;;;;;;;;;29.25;27.50;;;;;3.35;70.87;102178.84;5055074;28;45364;-61
2022/01/16 09:36:14;;;;;;;;;29.25;25.50;;;;;3.40;70.20;102172.03;5055183;28;45483;-61
2022/01/16 09:38:39;;;;;;;;;30.25;28.75;;;;;3.38;70.70;102177.19;5037273;28;45416;-60
2022/01/16 09:41:06;;;;;;;;;35.00;30.25;;;;;3.41;70.58;102184.16;5055044;28;45464;-61
2022/01/16 09:43:34;;;;;;;;;21.00;21.00;;;;;3.42;70.35;102185.94;5055041;28;45442;-61
2022/01/16 09:45:59;;;;;;;;;23.00;23.00;;;;;3.48;69.74;102183.44;5057304;28;45432;-61
2022/01/16 09:48:25;;;;;;;;;28.75;25.25;;;;;3.60;70.02;102190.59;5058788;28;45398;-61
2022/01/16 09:50:50;;;;;;;;;26.25;24.25;;;;;3.61;69.70;102192.38;5058561;28;45556;-61
2022/01/16 09:53:17;;;;;;;;;27.50;24.75;;;;;3.55;69.13;102193.13;5057933;28;46483;-60
2022/01/16 09:55:43;;;;;;;;;26.75;26.75;;;;;3.45;69.94;102188.59;5058560;28;45547;-60
2022/01/16 09:58:09;;;;;;;;;24.25;21.75;;;;;3.39;69.68;102178.09;5058408;28;45571;-60
2022/01/16 10:00:35;;;;;;;;;21.75;18.50;;;;;3.39;69.48;102191.09;5058625;28;45474;-60
2022/01/16 10:03:02;;;;;;;;;25.00;22.75;;;;;3.36;69.47;102191.00;5057629;28;46469;-59
2022/01/16 10:05:31;;;;;;;;;23.75;22.50;;;;;3.38;70.33;102191.91;5058326;28;45530;-60
2022/01/16 10:08:00;;;;;;;;;28.50;22.00;;;;;3.43;69.28;102182.47;5058472;28;45423;-59
2022/01/16 10:10:29;;;;;;;;;22.00;18.75;;;;;3.51;69.98;102183.50;5058030;28;45555;-60
2022/01/16 10:13:03;;;;;;;;;27.25;24.50;;;;;3.63;69.07;102185.47;5058016;28;45379;-60
2022/01/16 10:15:29;;;;;;;;;28.50;23.50;;;;;3.73;68.84;102175.28;5057884;28;45442;-61
2022/01/16 10:17:56;;;;;;;;;29.75;27.25;;;;;3.82;69.30;102186.69;5058132;28;45332;-62
2022/01/16 10:20:24;;;;;;;;;25.25;24.75;;;;;3.84;68.03;102183.28;5058000;28;45420;-61
2022/01/16 10:22:55;;;;;;;;;26.50;23.50;;;;;3.83;69.50;102194.50;5057769;28;46434;-61
2022/01/16 10:25:41;;;;;;;;;24.50;23.75;;;;;3.79;69.02;102190.13;5057337;28;45463;-60
2022/01/16 10:28:20;;;;;;;;;19.50;19.50;;;;;3.79;68.60;102184.00;5058104;28;45440;-62
2022/01/16 10:30:49;;;;;;;;;27.00;25.75;;;;;3.83;69.09;102185.84;5057684;28;45412;-60
2022/01/16 10:33:17;;;;;;;;;29.75;27.50;;;;;3.85;68.87;102200.63;5057440;28;45356;-60
2022/01/16 10:35:44;;;;;;;;;22.00;19.25;;;;;3.88;69.44;102205.03;5057133;28;45546;-61
2022/01/16 10:38:15;;;;;;;;;27.25;23.00;;;;;3.89;68.75;102179.00;5057657;28;45507;-61
2022/01/16 10:40:41;;;;;;;;;26.25;19.25;;;;;3.94;68.38;102186.91;5057910;28;45396;-61
2022/01/16 10:43:17;;;;;;;;;26.25;22.50;;;;;4.07;68.31;102188.88;5057462;28;45436;-61
2022/01/16 10:45:43;;;;;;;;;25.25;21.75;;;;;4.08;68.71;102188.00;5057592;28;45340;-61
2022/01/16 10:48:11;;;;;;;;;27.00;24.75;;;;;4.09;69.00;102187.19;5038725;28;45786;-60
2022/01/16 10:50:42;;;;;;;;;16.25;14.25;;;;;4.08;68.09;102187.13;5057629;28;45465;-61
2022/01/16 10:53:12;;;;;;;;;23.50;19.50;;;;;4.08;68.94;102192.34;5057206;28;46166;-61
2022/01/16 10:55:51;;;;;;;;;26.50;22.75;;;;;4.10;68.44;102196.72;5057509;28;45594;-60
2022/01/16 10:58:21;;;;;;;;;26.75;23.25;;;;;4.15;69.38;102196.81;5056108;28;45377;-61
2022/01/16 11:00:52;;;;;;;;;34.00;29.00;;;;;4.21;68.76;102189.97;5057638;28;45473;-60
2022/01/16 11:03:18;;;;;;;;;26.75;23.00;;;;;4.26;68.17;102192.66;5057262;28;45383;-62
2022/01/16 11:05:45;;;;;;;;;28.50;26.00;;;;;4.31;68.77;102187.53;5057285;28;45625;-60
2022/01/16 11:08:16;;;;;;;;;30.00;24.50;;;;;4.31;68.27;102190.13;5038916;28;45517;-62
2022/01/16 11:10:54;;;;;;;;;24.00;22.50;;;;;4.38;68.23;102192.88;5057183;28;45328;-61
2022/01/16 11:13:23;;;;;;;;;29.50;25.75;;;;;4.40;68.60;102179.84;5057355;28;45515;-60
2022/01/16 11:15:52;;;;;;;;;27.25;27.25;;;;;4.42;68.52;102189.44;5055825;28;45434;-62
2022/01/16 11:18:19;;;;;;;;;31.50;27.50;;;;;4.41;68.54;102195.50;5038672;28;45335;-60
2022/01/16 11:20:53;;;;;;;;;30.75;26.25;;;;;4.39;68.51;102184.19;5056769;28;45461;-61
2022/01/16 11:23:33;;;;;;;;;28.25;26.00;;;;;4.37;68.73;102192.81;5038265;28;46273;-60
2022/01/16 11:26:00;;;;;;;;;27.00;27.00;;;;;4.40;69.24;102190.25;5057057;28;45479;-59
2022/01/16 11:28:25;;;;;;;;;27.50;23.75;;;;;4.39;68.83;102193.72;5057092;28;45567;-63
2022/01/16 11:30:53;;;;;;;;;22.50;22.50;;;;;4.39;69.33;102197.22;5056891;28;45397;-61
2022/01/16 11:33:21;;;;;;;;;29.00;28.25;;;;;4.38;69.39;102197.19;5057131;28;46264;-61
2022/01/16 11:35:53;;;;;;;;;36.75;33.50;;;;;4.38;69.32;102195.47;5057086;28;45471;-62
2022/01/16 11:38:20;;;;;;;;;23.50;23.50;;;;;4.45;69.21;102179.91;5056912;28;45401;-61
2022/01/16 11:40:49;;;;;;;;;33.25;28.75;;;;;4.50;68.82;102188.69;5057102;28;45498;-61
2022/01/16 11:43:18;;;;;;;;;24.75;23.75;;;;;4.53;69.25;102184.38;5056470;28;45388;-61
2022/01/16 11:46:11;;;;;;;;;24.50;24.50;;;;;4.54;68.93;102182.66;5056850;28;45349;-62
2022/01/16 11:48:39;;;;;;;;;32.50;24.50;;;;;4.50;69.19;102186.94;5042264;28;45368;-59
2022/01/16 11:51:32;;;;;;;;;22.75;21.75;;;;;4.50;69.55;102197.38;5056648;28;45534;-60
2022/01/16 11:54:07;;;;;;;;;23.75;23.75;;;;;4.46;69.89;102200.81;5040148;28;45459;-61
2022/01/16 11:59:10;;;;;;;;;27.75;26.25;;;;;4.37;69.54;102200.63;5056645;28;45460;-61
2022/01/16 12:02:17;;;;;;;;;28.00;25.00;;;;;4.36;70.10;102202.38;5056596;28;45674;-60
2022/01/16 12:04:45;;;;;;;;;27.25;23.00;;;;;4.36;70.47;102198.91;5028271;28;45694;-61
2022/01/16 12:07:13;;;;;;;;;23.00;23.00;;;;;4.36;69.71;102199.78;5056468;28;45421;-61
2022/01/16 12:09:41;;;;;;;;;17.75;11.50;;;;;4.33;70.36;102186.69;5055493;28;45471;-60